sensor_id;sensor_type;location;lat;lon;timestamp;P1;durP1;ratioP1;P2;durP2;ratioP2
83410;SDS011;73340;53.132;8.174;2023-12-28T00:00:30;4.60;;;2.60;;
83410;SDS011;73340;53.132;8.174;2023-12-28T00:02:56;6.07;;;2.40;;
83410;SDS011;73340;53.132;8.174;2023-12-28T00:05:21;5.13;;;2.45;;
83410;SDS011;73340;53.132;8.174;2023-12-28T00:07:46;4.97;;;2.10;;
83410;SDS011;73340;53.132;8.174;2023-12-28T00:10:11;6.90;;;2.27;;
83410;SDS011;73340;53.132;8.174;2023-12-28T00:12:37;4.17;;;2.37;;
83410;SDS011;73340;53.132;8.174;2023-12-28T00:15:02;4.17;;;2.40;;
83410;SDS011;73340;53.132;8.174;2023-12-28T00:17:27;4.05;;;2.30;;
83410;SDS011;73340;53.132;8.174;2023-12-28T00:19:52;5.33;;;2.30;;
83410;SDS011;73340;53.132;8.174;2023-12-28T00:22:17;5.67;;;2.63;;
83410;SDS011;73340;53.132;8.174;2023-12-28T00:24:43;5.33;;;2.40;;
83410;SDS011;73340;53.132;8.174;2023-12-28T00:27:08;4.87;;;2.30;;
83410;SDS011;73340;53.132;8.174;2023-12-28T00:29:33;4.30;;;2.07;;
83410;SDS011;73340;53.132;8.174;2023-12-28T00:31:59;3.75;;;2.22;;
83410;SDS011;73340;53.132;8.174;2023-12-28T00:34:24;3.13;;;2.40;;
83410;SDS011;73340;53.132;8.174;2023-12-28T00:36:50;3.20;;;2.17;;
83410;SDS011;73340;53.132;8.174;2023-12-28T00:39:15;4.93;;;2.43;;
83410;SDS011;73340;53.132;8.174;2023-12-28T00:41:40;6.30;;;2.47;;
83410;SDS011;73340;53.132;8.174;2023-12-28T00:44:05;3.30;;;2.10;;
83410;SDS011;73340;53.132;8.174;2023-12-28T00:46:34;3.97;;;2.22;;
83410;SDS011;73340;53.132;8.174;2023-12-28T00:48:59;6.50;;;2.20;;
83410;SDS011;73340;53.132;8.174;2023-12-28T00:51:24;4.07;;;2.23;;
83410;SDS011;73340;53.132;8.174;2023-12-28T00:53:49;5.20;;;2.37;;
83410;SDS011;73340;53.132;8.174;2023-12-28T00:56:15;3.92;;;2.25;;
83410;SDS011;73340;53.132;8.174;2023-12-28T00:58:41;4.45;;;2.25;;
83410;SDS011;73340;53.132;8.174;2023-12-28T01:01:07;6.15;;;2.33;;
83410;SDS011;73340;53.132;8.174;2023-12-28T01:03:33;3.72;;;2.20;;
83410;SDS011;73340;53.132;8.174;2023-12-28T01:05:58;4.53;;;2.50;;
83410;SDS011;73340;53.132;8.174;2023-12-28T01:08:23;5.60;;;2.47;;
83410;SDS011;73340;53.132;8.174;2023-12-28T01:10:48;3.73;;;2.50;;
83410;SDS011;73340;53.132;8.174;2023-12-28T01:13:13;3.40;;;2.40;;
83410;SDS011;73340;53.132;8.174;2023-12-28T01:15:39;4.63;;;2.20;;
83410;SDS011;73340;53.132;8.174;2023-12-28T01:18:04;5.00;;;2.50;;
83410;SDS011;73340;53.132;8.174;2023-12-28T01:20:29;5.80;;;2.30;;
83410;SDS011;73340;53.132;8.174;2023-12-28T01:22:55;4.83;;;3.33;;
83410;SDS011;73340;53.132;8.174;2023-12-28T01:25:20;4.63;;;2.43;;
83410;SDS011;73340;53.132;8.174;2023-12-28T01:27:45;4.97;;;2.13;;
83410;SDS011;73340;53.132;8.174;2023-12-28T01:30:10;4.32;;;2.47;;
83410;SDS011;73340;53.132;8.174;2023-12-28T01:32:36;3.83;;;2.30;;
83410;SDS011;73340;53.132;8.174;2023-12-28T01:35:01;4.17;;;2.33;;
83410;SDS011;73340;53.132;8.174;2023-12-28T01:37:27;3.95;;;2.40;;
83410;SDS011;73340;53.132;8.174;2023-12-28T01:39:55;4.50;;;2.40;;
83410;SDS011;73340;53.132;8.174;2023-12-28T01:42:20;4.33;;;2.47;;
83410;SDS011;73340;53.132;8.174;2023-12-28T01:44:46;4.80;;;3.03;;
83410;SDS011;73340;53.132;8.174;2023-12-28T01:47:11;7.63;;;2.60;;
83410;SDS011;73340;53.132;8.174;2023-12-28T01:49:36;5.17;;;2.53;;
83410;SDS011;73340;53.132;8.174;2023-12-28T01:52:01;5.38;;;2.70;;
83410;SDS011;73340;53.132;8.174;2023-12-28T01:54:27;3.55;;;2.30;;
83410;SDS011;73340;53.132;8.174;2023-12-28T01:56:53;3.65;;;2.55;;
83410;SDS011;73340;53.132;8.174;2023-12-28T01:59:18;5.18;;;2.47;;
83410;SDS011;73340;53.132;8.174;2023-12-28T02:01:44;4.77;;;3.00;;
83410;SDS011;73340;53.132;8.174;2023-12-28T02:04:10;5.07;;;2.80;;
83410;SDS011;73340;53.132;8.174;2023-12-28T02:06:35;5.53;;;2.80;;
83410;SDS011;73340;53.132;8.174;2023-12-28T02:09:00;4.53;;;2.40;;
83410;SDS011;73340;53.132;8.174;2023-12-28T02:11:25;4.88;;;2.75;;
83410;SDS011;73340;53.132;8.174;2023-12-28T02:13:51;4.57;;;2.63;;
83410;SDS011;73340;53.132;8.174;2023-12-28T02:16:17;3.30;;;2.60;;
83410;SDS011;73340;53.132;8.174;2023-12-28T02:18:48;4.43;;;2.50;;
83410;SDS011;73340;53.132;8.174;2023-12-28T02:21:14;4.32;;;2.53;;
83410;SDS011;73340;53.132;8.174;2023-12-28T02:23:45;6.75;;;2.63;;
83410;SDS011;73340;53.132;8.174;2023-12-28T02:26:11;4.75;;;3.08;;
83410;SDS011;73340;53.132;8.174;2023-12-28T02:28:36;5.63;;;2.93;;
83410;SDS011;73340;53.132;8.174;2023-12-28T02:31:01;6.80;;;3.37;;
83410;SDS011;73340;53.132;8.174;2023-12-28T02:33:34;4.88;;;2.58;;
83410;SDS011;73340;53.132;8.174;2023-12-28T02:36:01;7.20;;;2.78;;
83410;SDS011;73340;53.132;8.174;2023-12-28T02:38:29;6.95;;;3.00;;
83410;SDS011;73340;53.132;8.174;2023-12-28T02:40:55;4.85;;;2.63;;
83410;SDS011;73340;53.132;8.174;2023-12-28T02:43:21;4.15;;;2.33;;
83410;SDS011;73340;53.132;8.174;2023-12-28T02:45:46;5.68;;;2.72;;
83410;SDS011;73340;53.132;8.174;2023-12-28T02:48:12;4.60;;;2.57;;
83410;SDS011;73340;53.132;8.174;2023-12-28T02:50:37;3.83;;;2.30;;
83410;SDS011;73340;53.132;8.174;2023-12-28T02:53:02;5.33;;;2.90;;
83410;SDS011;73340;53.132;8.174;2023-12-28T02:55:27;5.57;;;2.90;;
83410;SDS011;73340;53.132;8.174;2023-12-28T02:57:53;6.83;;;2.80;;
83410;SDS011;73340;53.132;8.174;2023-12-28T03:00:24;5.03;;;3.05;;
83410;SDS011;73340;53.132;8.174;2023-12-28T03:02:49;4.63;;;2.60;;
83410;SDS011;73340;53.132;8.174;2023-12-28T03:05:14;4.27;;;2.80;;
83410;SDS011;73340;53.132;8.174;2023-12-28T03:07:39;5.70;;;2.75;;
83410;SDS011;73340;53.132;8.174;2023-12-28T03:10:05;5.60;;;2.65;;
83410;SDS011;73340;53.132;8.174;2023-12-28T03:12:31;5.65;;;2.95;;
83410;SDS011;73340;53.132;8.174;2023-12-28T03:14:56;5.07;;;2.60;;
83410;SDS011;73340;53.132;8.174;2023-12-28T03:17:21;3.50;;;2.60;;
83410;SDS011;73340;53.132;8.174;2023-12-28T03:19:46;7.93;;;2.60;;
83410;SDS011;73340;53.132;8.174;2023-12-28T03:22:12;4.70;;;2.83;;
83410;SDS011;73340;53.132;8.174;2023-12-28T03:24:37;6.63;;;2.90;;
83410;SDS011;73340;53.132;8.174;2023-12-28T03:27:03;4.25;;;2.72;;
83410;SDS011;73340;53.132;8.174;2023-12-28T03:29:28;6.32;;;2.95;;
83410;SDS011;73340;53.132;8.174;2023-12-28T03:31:53;5.53;;;3.08;;
83410;SDS011;73340;53.132;8.174;2023-12-28T03:34:19;6.38;;;3.03;;
83410;SDS011;73340;53.132;8.174;2023-12-28T03:36:44;7.40;;;3.03;;
83410;SDS011;73340;53.132;8.174;2023-12-28T03:39:09;6.60;;;2.67;;
83410;SDS011;73340;53.132;8.174;2023-12-28T03:41:34;6.28;;;2.63;;
83410;SDS011;73340;53.132;8.174;2023-12-28T03:44:00;7.30;;;3.07;;
83410;SDS011;73340;53.132;8.174;2023-12-28T03:46:25;5.70;;;3.13;;
83410;SDS011;73340;53.132;8.174;2023-12-28T03:48:51;5.28;;;2.75;;
83410;SDS011;73340;53.132;8.174;2023-12-28T03:51:16;5.53;;;2.90;;
83410;SDS011;73340;53.132;8.174;2023-12-28T03:53:42;6.60;;;2.83;;
83410;SDS011;73340;53.132;8.174;2023-12-28T03:56:07;5.53;;;2.85;;
83410;SDS011;73340;53.132;8.174;2023-12-28T03:58:32;6.57;;;2.90;;
83410;SDS011;73340;53.132;8.174;2023-12-28T04:00:58;6.00;;;3.10;;
83410;SDS011;73340;53.132;8.174;2023-12-28T04:03:23;6.60;;;2.83;;
83410;SDS011;73340;53.132;8.174;2023-12-28T04:05:48;4.40;;;2.80;;
83410;SDS011;73340;53.132;8.174;2023-12-28T04:08:13;3.80;;;2.63;;
83410;SDS011;73340;53.132;8.174;2023-12-28T04:10:39;6.40;;;3.17;;
83410;SDS011;73340;53.132;8.174;2023-12-28T04:13:04;5.63;;;2.70;;
83410;SDS011;73340;53.132;8.174;2023-12-28T04:15:29;5.82;;;2.78;;
83410;SDS011;73340;53.132;8.174;2023-12-28T04:17:55;4.50;;;2.85;;
83410;SDS011;73340;53.132;8.174;2023-12-28T04:20:20;4.43;;;2.72;;
83410;SDS011;73340;53.132;8.174;2023-12-28T04:22:45;4.80;;;2.73;;
83410;SDS011;73340;53.132;8.174;2023-12-28T04:25:11;5.20;;;2.80;;
83410;SDS011;73340;53.132;8.174;2023-12-28T04:27:36;7.15;;;2.92;;
83410;SDS011;73340;53.132;8.174;2023-12-28T04:30:02;4.32;;;2.67;;
83410;SDS011;73340;53.132;8.174;2023-12-28T04:32:27;5.88;;;2.88;;
83410;SDS011;73340;53.132;8.174;2023-12-28T04:34:52;6.23;;;2.77;;
83410;SDS011;73340;53.132;8.174;2023-12-28T04:37:19;4.15;;;2.47;;
83410;SDS011;73340;53.132;8.174;2023-12-28T04:39:44;5.22;;;2.70;;
83410;SDS011;73340;53.132;8.174;2023-12-28T04:42:09;5.23;;;2.97;;
83410;SDS011;73340;53.132;8.174;2023-12-28T04:44:37;6.30;;;2.67;;
83410;SDS011;73340;53.132;8.174;2023-12-28T04:47:02;5.75;;;2.83;;
83410;SDS011;73340;53.132;8.174;2023-12-28T04:49:28;5.10;;;2.50;;
83410;SDS011;73340;53.132;8.174;2023-12-28T04:51:53;7.40;;;2.87;;
83410;SDS011;73340;53.132;8.174;2023-12-28T04:54:18;6.23;;;2.87;;
83410;SDS011;73340;53.132;8.174;2023-12-28T04:56:44;9.40;;;3.15;;
83410;SDS011;73340;53.132;8.174;2023-12-28T04:59:10;8.52;;;2.70;;
83410;SDS011;73340;53.132;8.174;2023-12-28T05:01:40;5.47;;;3.13;;
83410;SDS011;73340;53.132;8.174;2023-12-28T05:04:05;5.38;;;2.67;;
83410;SDS011;73340;53.132;8.174;2023-12-28T05:06:30;5.27;;;2.70;;
83410;SDS011;73340;53.132;8.174;2023-12-28T05:08:55;7.80;;;2.57;;
83410;SDS011;73340;53.132;8.174;2023-12-28T05:11:20;4.60;;;2.57;;
83410;SDS011;73340;53.132;8.174;2023-12-28T05:13:46;6.37;;;2.80;;
83410;SDS011;73340;53.132;8.174;2023-12-28T05:16:11;7.73;;;2.90;;
83410;SDS011;73340;53.132;8.174;2023-12-28T05:18:36;5.30;;;2.27;;
83410;SDS011;73340;53.132;8.174;2023-12-28T05:21:02;5.43;;;2.67;;
83410;SDS011;73340;53.132;8.174;2023-12-28T05:23:27;8.47;;;2.70;;
83410;SDS011;73340;53.132;8.174;2023-12-28T05:25:52;23.07;;;3.30;;
83410;SDS011;73340;53.132;8.174;2023-12-28T05:28:17;6.00;;;2.60;;
83410;SDS011;73340;53.132;8.174;2023-12-28T05:30:43;5.70;;;2.53;;
83410;SDS011;73340;53.132;8.174;2023-12-28T05:33:08;8.27;;;2.77;;
83410;SDS011;73340;53.132;8.174;2023-12-28T05:35:33;4.83;;;2.23;;
83410;SDS011;73340;53.132;8.174;2023-12-28T05:37:58;4.80;;;2.27;;
83410;SDS011;73340;53.132;8.174;2023-12-28T05:40:23;6.53;;;2.83;;
83410;SDS011;73340;53.132;8.174;2023-12-28T05:42:48;8.90;;;2.87;;
83410;SDS011;73340;53.132;8.174;2023-12-28T05:45:14;3.60;;;2.20;;
83410;SDS011;73340;53.132;8.174;2023-12-28T05:47:39;6.00;;;2.23;;
83410;SDS011;73340;53.132;8.174;2023-12-28T05:50:04;6.50;;;2.67;;
83410;SDS011;73340;53.132;8.174;2023-12-28T05:52:30;4.90;;;2.15;;
83410;SDS011;73340;53.132;8.174;2023-12-28T05:54:56;8.37;;;2.53;;
83410;SDS011;73340;53.132;8.174;2023-12-28T05:57:21;4.88;;;2.00;;
83410;SDS011;73340;53.132;8.174;2023-12-28T05:59:46;7.50;;;4.43;;
83410;SDS011;73340;53.132;8.174;2023-12-28T06:02:11;14.87;;;6.53;;
83410;SDS011;73340;53.132;8.174;2023-12-28T06:04:37;5.90;;;2.27;;
83410;SDS011;73340;53.132;8.174;2023-12-28T06:07:03;5.37;;;2.40;;
83410;SDS011;73340;53.132;8.174;2023-12-28T06:09:28;4.13;;;2.20;;
83410;SDS011;73340;53.132;8.174;2023-12-28T06:11:53;3.88;;;2.33;;
83410;SDS011;73340;53.132;8.174;2023-12-28T06:14:19;8.83;;;2.37;;
83410;SDS011;73340;53.132;8.174;2023-12-28T06:16:44;5.37;;;2.27;;
83410;SDS011;73340;53.132;8.174;2023-12-28T06:19:09;4.47;;;2.03;;
83410;SDS011;73340;53.132;8.174;2023-12-28T06:21:35;6.20;;;2.42;;
83410;SDS011;73340;53.132;8.174;2023-12-28T06:24:00;5.73;;;1.83;;
83410;SDS011;73340;53.132;8.174;2023-12-28T06:26:25;4.63;;;2.20;;
83410;SDS011;73340;53.132;8.174;2023-12-28T06:28:50;5.07;;;2.20;;
83410;SDS011;73340;53.132;8.174;2023-12-28T06:31:16;7.07;;;2.35;;
83410;SDS011;73340;53.132;8.174;2023-12-28T06:33:41;6.40;;;2.47;;
83410;SDS011;73340;53.132;8.174;2023-12-28T06:36:06;6.27;;;2.60;;
83410;SDS011;73340;53.132;8.174;2023-12-28T06:38:31;5.57;;;2.10;;
83410;SDS011;73340;53.132;8.174;2023-12-28T06:40:58;3.50;;;2.40;;
83410;SDS011;73340;53.132;8.174;2023-12-28T06:43:23;8.63;;;1.87;;
83410;SDS011;73340;53.132;8.174;2023-12-28T06:45:48;4.50;;;2.00;;
83410;SDS011;73340;53.132;8.174;2023-12-28T06:48:13;8.60;;;4.23;;
83410;SDS011;73340;53.132;8.174;2023-12-28T06:50:38;9.70;;;3.70;;
83410;SDS011;73340;53.132;8.174;2023-12-28T06:53:04;10.20;;;2.50;;
83410;SDS011;73340;53.132;8.174;2023-12-28T06:55:29;7.33;;;2.70;;
83410;SDS011;73340;53.132;8.174;2023-12-28T06:57:54;7.73;;;2.57;;
83410;SDS011;73340;53.132;8.174;2023-12-28T07:00:19;4.73;;;2.40;;
83410;SDS011;73340;53.132;8.174;2023-12-28T07:02:44;5.87;;;2.50;;
83410;SDS011;73340;53.132;8.174;2023-12-28T07:05:09;6.93;;;2.13;;
83410;SDS011;73340;53.132;8.174;2023-12-28T07:07:35;6.23;;;2.50;;
83410;SDS011;73340;53.132;8.174;2023-12-28T07:10:02;4.47;;;2.30;;
83410;SDS011;73340;53.132;8.174;2023-12-28T07:12:27;7.05;;;2.50;;
83410;SDS011;73340;53.132;8.174;2023-12-28T07:14:52;7.00;;;2.07;;
83410;SDS011;73340;53.132;8.174;2023-12-28T07:17:17;5.20;;;2.10;;
83410;SDS011;73340;53.132;8.174;2023-12-28T07:19:43;7.53;;;2.37;;
83410;SDS011;73340;53.132;8.174;2023-12-28T07:22:08;5.68;;;2.15;;
83410;SDS011;73340;53.132;8.174;2023-12-28T07:24:33;7.37;;;2.20;;
83410;SDS011;73340;53.132;8.174;2023-12-28T07:26:59;6.25;;;2.20;;
83410;SDS011;73340;53.132;8.174;2023-12-28T07:29:24;9.93;;;2.83;;
83410;SDS011;73340;53.132;8.174;2023-12-28T07:31:49;8.63;;;2.20;;
83410;SDS011;73340;53.132;8.174;2023-12-28T07:34:14;4.83;;;2.43;;
83410;SDS011;73340;53.132;8.174;2023-12-28T07:36:39;10.63;;;3.10;;
83410;SDS011;73340;53.132;8.174;2023-12-28T07:39:07;5.90;;;2.35;;
83410;SDS011;73340;53.132;8.174;2023-12-28T07:41:33;8.55;;;2.33;;
83410;SDS011;73340;53.132;8.174;2023-12-28T07:43:58;8.30;;;2.33;;
83410;SDS011;73340;53.132;8.174;2023-12-28T07:46:23;5.80;;;2.20;;
83410;SDS011;73340;53.132;8.174;2023-12-28T07:48:48;9.93;;;2.30;;
83410;SDS011;73340;53.132;8.174;2023-12-28T07:51:14;6.53;;;2.67;;
83410;SDS011;73340;53.132;8.174;2023-12-28T07:53:39;17.10;;;4.43;;
83410;SDS011;73340;53.132;8.174;2023-12-28T07:56:04;8.13;;;3.57;;
83410;SDS011;73340;53.132;8.174;2023-12-28T07:58:30;7.22;;;2.10;;
83410;SDS011;73340;53.132;8.174;2023-12-28T08:00:55;12.67;;;2.50;;
83410;SDS011;73340;53.132;8.174;2023-12-28T08:03:20;6.50;;;2.00;;
83410;SDS011;73340;53.132;8.174;2023-12-28T08:05:45;7.83;;;2.57;;
83410;SDS011;73340;53.132;8.174;2023-12-28T08:08:10;9.27;;;2.63;;
83410;SDS011;73340;53.132;8.174;2023-12-28T08:10:35;11.70;;;2.23;;
83410;SDS011;73340;53.132;8.174;2023-12-28T08:13:01;5.27;;;2.40;;
83410;SDS011;73340;53.132;8.174;2023-12-28T08:15:26;10.20;;;2.03;;
83410;SDS011;73340;53.132;8.174;2023-12-28T08:17:51;5.00;;;2.33;;
83410;SDS011;73340;53.132;8.174;2023-12-28T08:20:16;3.53;;;1.80;;
83410;SDS011;73340;53.132;8.174;2023-12-28T08:22:41;10.40;;;2.60;;
83410;SDS011;73340;53.132;8.174;2023-12-28T08:25:07;8.30;;;2.03;;
83410;SDS011;73340;53.132;8.174;2023-12-28T08:27:32;10.23;;;1.90;;
83410;SDS011;73340;53.132;8.174;2023-12-28T08:29:57;8.13;;;2.00;;
83410;SDS011;73340;53.132;8.174;2023-12-28T08:32:22;5.70;;;1.90;;
83410;SDS011;73340;53.132;8.174;2023-12-28T08:34:47;5.97;;;1.77;;
83410;SDS011;73340;53.132;8.174;2023-12-28T08:37:14;9.07;;;2.40;;
83410;SDS011;73340;53.132;8.174;2023-12-28T08:39:39;12.63;;;2.57;;
83410;SDS011;73340;53.132;8.174;2023-12-28T08:42:04;11.88;;;2.00;;
83410;SDS011;73340;53.132;8.174;2023-12-28T08:44:30;9.60;;;2.03;;
83410;SDS011;73340;53.132;8.174;2023-12-28T08:46:55;6.77;;;2.30;;
83410;SDS011;73340;53.132;8.174;2023-12-28T08:49:20;13.13;;;2.10;;
83410;SDS011;73340;53.132;8.174;2023-12-28T08:51:47;9.60;;;1.88;;
83410;SDS011;73340;53.132;8.174;2023-12-28T08:54:12;11.53;;;3.50;;
83410;SDS011;73340;53.132;8.174;2023-12-28T08:56:37;11.97;;;4.43;;
83410;SDS011;73340;53.132;8.174;2023-12-28T08:59:02;14.37;;;1.90;;
83410;SDS011;73340;53.132;8.174;2023-12-28T09:01:28;9.40;;;1.77;;
83410;SDS011;73340;53.132;8.174;2023-12-28T09:03:54;13.48;;;2.22;;
83410;SDS011;73340;53.132;8.174;2023-12-28T09:06:20;9.80;;;2.25;;
83410;SDS011;73340;53.132;8.174;2023-12-28T09:08:46;9.40;;;2.70;;
83410;SDS011;73340;53.132;8.174;2023-12-28T09:11:12;7.65;;;2.28;;
83410;SDS011;73340;53.132;8.174;2023-12-28T09:13:39;8.95;;;2.10;;
83410;SDS011;73340;53.132;8.174;2023-12-28T09:16:05;8.65;;;2.55;;
83410;SDS011;73340;53.132;8.174;2023-12-28T09:18:30;7.57;;;1.88;;
83410;SDS011;73340;53.132;8.174;2023-12-28T09:20:55;8.73;;;1.67;;
83410;SDS011;73340;53.132;8.174;2023-12-28T09:23:21;6.70;;;1.83;;
83410;SDS011;73340;53.132;8.174;2023-12-28T09:25:46;8.48;;;1.85;;
83410;SDS011;73340;53.132;8.174;2023-12-28T09:28:11;11.90;;;2.40;;
83410;SDS011;73340;53.132;8.174;2023-12-28T09:30:38;10.73;;;2.50;;
83410;SDS011;73340;53.132;8.174;2023-12-28T09:33:03;8.10;;;2.03;;
83410;SDS011;73340;53.132;8.174;2023-12-28T09:35:28;7.10;;;1.93;;
83410;SDS011;73340;53.132;8.174;2023-12-28T09:37:53;7.97;;;2.00;;
83410;SDS011;73340;53.132;8.174;2023-12-28T09:40:19;10.13;;;2.15;;
83410;SDS011;73340;53.132;8.174;2023-12-28T09:43:29;12.52;;;2.70;;
83410;SDS011;73340;53.132;8.174;2023-12-28T09:45:33;11.70;;;2.28;;
83410;SDS011;73340;53.132;8.174;2023-12-28T09:47:58;10.17;;;2.27;;
83410;SDS011;73340;53.132;8.174;2023-12-28T09:50:24;6.38;;;2.00;;
83410;SDS011;73340;53.132;8.174;2023-12-28T09:52:51;7.28;;;2.08;;
83410;SDS011;73340;53.132;8.174;2023-12-28T09:55:16;8.63;;;2.33;;
83410;SDS011;73340;53.132;8.174;2023-12-28T09:57:42;5.65;;;1.92;;
83410;SDS011;73340;53.132;8.174;2023-12-28T10:00:08;5.05;;;1.83;;
83410;SDS011;73340;53.132;8.174;2023-12-28T10:02:34;6.38;;;2.13;;
83410;SDS011;73340;53.132;8.174;2023-12-28T10:05:00;7.93;;;2.17;;
83410;SDS011;73340;53.132;8.174;2023-12-28T10:07:25;9.93;;;2.37;;
83410;SDS011;73340;53.132;8.174;2023-12-28T10:09:52;9.30;;;2.30;;
83410;SDS011;73340;53.132;8.174;2023-12-28T10:12:17;12.48;;;2.83;;
83410;SDS011;73340;53.132;8.174;2023-12-28T10:14:42;11.73;;;2.07;;
83410;SDS011;73340;53.132;8.174;2023-12-28T10:17:07;7.27;;;1.97;;
83410;SDS011;73340;53.132;8.174;2023-12-28T10:19:34;11.95;;;2.33;;
83410;SDS011;73340;53.132;8.174;2023-12-28T10:21:59;12.38;;;2.55;;
83410;SDS011;73340;53.132;8.174;2023-12-28T10:24:25;10.43;;;2.30;;
83410;SDS011;73340;53.132;8.174;2023-12-28T10:26:50;9.37;;;2.17;;
83410;SDS011;73340;53.132;8.174;2023-12-28T10:29:15;7.37;;;1.83;;
83410;SDS011;73340;53.132;8.174;2023-12-28T10:31:44;10.23;;;2.20;;
83410;SDS011;73340;53.132;8.174;2023-12-28T10:34:09;11.82;;;2.95;;
83410;SDS011;73340;53.132;8.174;2023-12-28T10:36:35;8.03;;;2.47;;
83410;SDS011;73340;53.132;8.174;2023-12-28T10:39:02;9.68;;;2.30;;
83410;SDS011;73340;53.132;8.174;2023-12-28T10:41:29;10.40;;;2.72;;
83410;SDS011;73340;53.132;8.174;2023-12-28T10:44:05;16.83;;;4.00;;
83410;SDS011;73340;53.132;8.174;2023-12-28T10:46:30;12.82;;;2.53;;
83410;SDS011;73340;53.132;8.174;2023-12-28T10:49:00;11.55;;;2.53;;
83410;SDS011;73340;53.132;8.174;2023-12-28T10:51:25;10.25;;;2.13;;
83410;SDS011;73340;53.132;8.174;2023-12-28T10:56:38;8.88;;;2.50;;
83410;SDS011;73340;53.132;8.174;2023-12-28T11:01:37;12.25;;;2.67;;
83410;SDS011;73340;53.132;8.174;2023-12-28T11:06:29;10.40;;;2.67;;
83410;SDS011;73340;53.132;8.174;2023-12-28T11:08:55;6.30;;;3.03;;
83410;SDS011;73340;53.132;8.174;2023-12-28T11:11:21;12.30;;;2.00;;
83410;SDS011;73340;53.132;8.174;2023-12-28T11:13:46;6.90;;;2.20;;
83410;SDS011;73340;53.132;8.174;2023-12-28T11:16:12;10.57;;;2.00;;
83410;SDS011;73340;53.132;8.174;2023-12-28T11:18:38;8.65;;;2.20;;
83410;SDS011;73340;53.132;8.174;2023-12-28T11:21:03;9.63;;;1.90;;
83410;SDS011;73340;53.132;8.174;2023-12-28T11:23:30;8.27;;;2.30;;
83410;SDS011;73340;53.132;8.174;2023-12-28T11:25:55;14.95;;;2.78;;
83410;SDS011;73340;53.132;8.174;2023-12-28T11:28:20;9.77;;;2.07;;
83410;SDS011;73340;53.132;8.174;2023-12-28T11:30:48;8.20;;;2.15;;
83410;SDS011;73340;53.132;8.174;2023-12-28T11:33:13;11.97;;;2.47;;
83410;SDS011;73340;53.132;8.174;2023-12-28T11:35:39;10.73;;;2.57;;
83410;SDS011;73340;53.132;8.174;2023-12-28T11:38:04;10.73;;;2.40;;
83410;SDS011;73340;53.132;8.174;2023-12-28T11:40:39;12.65;;;2.63;;
83410;SDS011;73340;53.132;8.174;2023-12-28T11:43:04;16.63;;;3.65;;
83410;SDS011;73340;53.132;8.174;2023-12-28T11:45:39;12.02;;;2.22;;
83410;SDS011;73340;53.132;8.174;2023-12-28T11:48:11;13.52;;;2.72;;
83410;SDS011;73340;53.132;8.174;2023-12-28T11:50:46;9.55;;;2.42;;
83410;SDS011;73340;53.132;8.174;2023-12-28T11:53:12;10.20;;;2.97;;
83410;SDS011;73340;53.132;8.174;2023-12-28T11:55:37;9.57;;;2.72;;
83410;SDS011;73340;53.132;8.174;2023-12-28T11:58:02;16.77;;;2.73;;
83410;SDS011;73340;53.132;8.174;2023-12-28T12:00:27;11.63;;;2.70;;
83410;SDS011;73340;53.132;8.174;2023-12-28T12:02:52;11.63;;;2.23;;
83410;SDS011;73340;53.132;8.174;2023-12-28T12:05:18;12.23;;;2.47;;
83410;SDS011;73340;53.132;8.174;2023-12-28T12:07:43;9.53;;;2.40;;
83410;SDS011;73340;53.132;8.174;2023-12-28T12:10:13;13.20;;;2.93;;
83410;SDS011;73340;53.132;8.174;2023-12-28T12:12:39;8.95;;;2.30;;
83410;SDS011;73340;53.132;8.174;2023-12-28T12:15:04;9.50;;;2.20;;
83410;SDS011;73340;53.132;8.174;2023-12-28T12:17:30;16.33;;;2.08;;
83410;SDS011;73340;53.132;8.174;2023-12-28T12:19:55;10.93;;;2.28;;
83410;SDS011;73340;53.132;8.174;2023-12-28T12:22:22;14.40;;;2.60;;
83410;SDS011;73340;53.132;8.174;2023-12-28T12:24:48;17.17;;;3.10;;
83410;SDS011;73340;53.132;8.174;2023-12-28T12:27:14;9.25;;;2.25;;
83410;SDS011;73340;53.132;8.174;2023-12-28T12:29:39;14.07;;;2.38;;
83410;SDS011;73340;53.132;8.174;2023-12-28T12:32:04;13.13;;;2.97;;
83410;SDS011;73340;53.132;8.174;2023-12-28T12:34:30;12.30;;;1.88;;
83410;SDS011;73340;53.132;8.174;2023-12-28T12:36:55;12.97;;;2.03;;
83410;SDS011;73340;53.132;8.174;2023-12-28T12:39:22;8.80;;;2.17;;
83410;SDS011;73340;53.132;8.174;2023-12-28T12:41:48;12.52;;;2.45;;
83410;SDS011;73340;53.132;8.174;2023-12-28T12:44:14;10.70;;;2.08;;
83410;SDS011;73340;53.132;8.174;2023-12-28T12:46:39;11.87;;;2.57;;
83410;SDS011;73340;53.132;8.174;2023-12-28T12:49:05;16.23;;;2.87;;
83410;SDS011;73340;53.132;8.174;2023-12-28T12:51:30;9.18;;;2.10;;
83410;SDS011;73340;53.132;8.174;2023-12-28T12:53:59;12.40;;;2.25;;
83410;SDS011;73340;53.132;8.174;2023-12-28T12:56:27;5.00;;;1.80;;
83410;SDS011;73340;53.132;8.174;2023-12-28T12:58:53;14.63;;;2.95;;
83410;SDS011;73340;53.132;8.174;2023-12-28T13:01:18;16.35;;;2.30;;
83410;SDS011;73340;53.132;8.174;2023-12-28T13:03:43;11.85;;;2.42;;
83410;SDS011;73340;53.132;8.174;2023-12-28T13:06:10;8.98;;;2.50;;
83410;SDS011;73340;53.132;8.174;2023-12-28T13:08:35;10.63;;;2.00;;
83410;SDS011;73340;53.132;8.174;2023-12-28T13:11:00;10.83;;;2.13;;
83410;SDS011;73340;53.132;8.174;2023-12-28T13:13:26;8.17;;;2.57;;
83410;SDS011;73340;53.132;8.174;2023-12-28T13:15:51;12.63;;;2.33;;
83410;SDS011;73340;53.132;8.174;2023-12-28T13:18:16;14.27;;;2.47;;
83410;SDS011;73340;53.132;8.174;2023-12-28T13:20:41;12.50;;;2.40;;
83410;SDS011;73340;53.132;8.174;2023-12-28T13:23:08;10.73;;;2.22;;
83410;SDS011;73340;53.132;8.174;2023-12-28T13:25:33;16.98;;;2.63;;
83410;SDS011;73340;53.132;8.174;2023-12-28T13:27:58;13.37;;;2.40;;
83410;SDS011;73340;53.132;8.174;2023-12-28T13:30:24;9.93;;;2.17;;
83410;SDS011;73340;53.132;8.174;2023-12-28T13:32:53;8.70;;;2.00;;
83410;SDS011;73340;53.132;8.174;2023-12-28T13:35:18;12.47;;;2.50;;
83410;SDS011;73340;53.132;8.174;2023-12-28T13:37:43;16.67;;;2.40;;
83410;SDS011;73340;53.132;8.174;2023-12-28T13:40:08;10.70;;;2.93;;
83410;SDS011;73340;53.132;8.174;2023-12-28T13:42:34;11.07;;;2.00;;
83410;SDS011;73340;53.132;8.174;2023-12-28T13:44:59;13.47;;;2.23;;
83410;SDS011;73340;53.132;8.174;2023-12-28T13:47:24;11.80;;;2.42;;
83410;SDS011;73340;53.132;8.174;2023-12-28T13:49:49;11.90;;;2.00;;
83410;SDS011;73340;53.132;8.174;2023-12-28T13:52:15;7.73;;;2.10;;
83410;SDS011;73340;53.132;8.174;2023-12-28T13:54:40;15.13;;;3.97;;
83410;SDS011;73340;53.132;8.174;2023-12-28T13:57:06;15.35;;;2.60;;
83410;SDS011;73340;53.132;8.174;2023-12-28T13:59:31;10.50;;;2.33;;
83410;SDS011;73340;53.132;8.174;2023-12-28T14:01:57;9.13;;;2.83;;
83410;SDS011;73340;53.132;8.174;2023-12-28T14:04:23;10.07;;;2.42;;
83410;SDS011;73340;53.132;8.174;2023-12-28T14:06:48;9.52;;;2.08;;
83410;SDS011;73340;53.132;8.174;2023-12-28T14:09:14;11.27;;;2.30;;
83410;SDS011;73340;53.132;8.174;2023-12-28T14:11:44;8.80;;;2.60;;
83410;SDS011;73340;53.132;8.174;2023-12-28T14:14:09;9.67;;;2.80;;
83410;SDS011;73340;53.132;8.174;2023-12-28T14:16:34;15.80;;;2.37;;
83410;SDS011;73340;53.132;8.174;2023-12-28T14:19:00;16.40;;;2.50;;
83410;SDS011;73340;53.132;8.174;2023-12-28T14:21:25;18.43;;;2.57;;
83410;SDS011;73340;53.132;8.174;2023-12-28T14:23:50;17.20;;;3.15;;
83410;SDS011;73340;53.132;8.174;2023-12-28T14:26:16;12.18;;;2.60;;
83410;SDS011;73340;53.132;8.174;2023-12-28T14:28:42;16.02;;;2.90;;
83410;SDS011;73340;53.132;8.174;2023-12-28T14:31:11;9.05;;;2.20;;
83410;SDS011;73340;53.132;8.174;2023-12-28T14:33:36;16.00;;;2.75;;
83410;SDS011;73340;53.132;8.174;2023-12-28T14:36:02;14.40;;;2.28;;
83410;SDS011;73340;53.132;8.174;2023-12-28T14:38:28;9.43;;;2.28;;
83410;SDS011;73340;53.132;8.174;2023-12-28T14:40:54;11.03;;;2.60;;